Time;durP1;ratioP1;P1;durP2;ratioP2;P2;SDS_P1;SDS_P2;PMS_P1;PMS_P2;Temp;Humidity;BMP_temperature;BMP_pressure;BME280_temperature;BME280_humidity;BME280_pressure;Samples;Min_cycle;Max_cycle;Signal;HPM_P1;HPM_P2
2021/12/05 00:22:17;;;;;;;8.23;1.23;;;3.90;99.90;;;;;;4897850;29;20440;-73
2021/12/05 00:24:48;;;;;;;6.03;1.47;;;4.00;99.90;;;;;;4897655;29;20942;-74
2021/12/05 00:27:18;;;;;;;4.47;0.90;;;4.00;99.90;;;;;;4897721;29;20475;-74
2021/12/05 00:30:07;;;;;;;3.57;1.00;;;4.00;99.90;;;;;;4897627;29;20477;-74
2021/12/05 00:33:05;;;;;;;2.93;1.10;;;4.00;99.90;;;;;;4896715;29;20459;-74
2021/12/05 00:57:20;;;;;;;5.03;0.90;;;4.10;99.90;;;;;;4897526;29;20515;-74
2021/12/05 05:52:14;;;;;;;6.07;1.60;;;2.70;99.90;;;;;;4896396;29;20568;-74
2021/12/05 05:54:42;;;;;;;1.87;0.70;;;2.70;99.90;;;;;;4896369;29;20179;-73
2021/12/05 06:00:05;;;;;;;1.60;0.77;;;2.60;99.90;;;;;;4893571;29;20439;-70
2021/12/05 06:05:15;;;;;;;2.63;1.07;;;2.60;99.90;;;;;;4896426;29;20394;-73
2021/12/05 06:07:45;;;;;;;3.03;0.80;;;2.70;99.90;;;;;;4896226;29;20409;-73
2021/12/05 06:10:14;;;;;;;1.23;0.90;;;2.70;99.90;;;;;;4896477;29;20890;-72
2021/12/05 06:12:40;;;;;;;1.93;1.10;;;2.70;99.90;;;;;;4895589;29;21011;-72
2021/12/05 06:15:09;;;;;;;3.80;1.00;;;2.70;99.90;;;;;;4895844;29;20420;-72
2021/12/05 06:17:35;;;;;;;4.40;1.07;;;2.80;99.90;;;;;;4895575;29;20907;-73
2021/12/05 06:20:01;;;;;;;3.30;0.73;;;2.70;99.90;;;;;;4895883;29;20909;-73
2021/12/05 06:22:27;;;;;;;0.80;0.80;;;2.80;99.90;;;;;;4895657;29;20419;-73
2021/12/05 06:24:52;;;;;;;2.80;0.60;;;2.70;99.90;;;;;;4896063;29;20218;-72
2021/12/05 06:27:18;;;;;;;3.50;0.80;;;2.80;99.90;;;;;;4895784;29;20178;-72
2021/12/05 06:29:52;;;;;;;2.53;0.57;;;2.70;99.90;;;;;;4896192;29;20187;-72
2021/12/05 06:37:44;;;;;;;1.37;0.90;;;2.60;99.90;;;;;;4899583;29;20227;-73
2021/12/05 06:43:04;;;;;;;2.80;0.70;;;2.60;99.90;;;;;;4899372;29;20423;-73
2021/12/05 06:48:13;;;;;;;4.30;1.07;;;2.60;99.90;;;;;;4899384;29;20446;-73
2021/12/05 06:50:39;;;;;;;0.60;0.60;;;2.50;99.90;;;;;;4899365;29;20425;-73
2021/12/05 06:53:06;;;;;;;2.30;0.80;;;2.60;99.90;;;;;;4898965;29;20244;-73
2021/12/05 06:55:32;;;;;;;3.40;0.73;;;2.60;99.90;;;;;;4899330;29;20526;-73
2021/12/05 06:57:57;;;;;;;2.30;0.80;;;2.60;99.90;;;;;;4899268;29;20466;-72
2021/12/05 07:00:27;;;;;;;7.53;1.10;;;2.70;99.90;;;;;;4899287;29;20178;-72
2021/12/05 07:02:53;;;;;;;3.37;0.60;;;2.60;99.90;;;;;;4899212;29;20227;-72
2021/12/05 07:08:00;;;;;;;1.70;0.50;;;2.70;99.90;;;;;;4899513;29;20538;-72
2021/12/05 07:10:27;;;;;;;1.57;0.60;;;2.80;99.90;;;;;;4899216;29;20825;-72
2021/12/05 07:15:49;;;;;;;2.30;0.50;;;2.90;99.90;;;;;;4898769;29;20424;-71
2021/12/05 07:21:29;;;;;;;3.57;0.80;;;2.90;99.90;;;;;;4899729;29;20435;-72
2021/12/05 07:24:05;;;;;;;1.40;0.70;;;3.00;99.90;;;;;;4899113;29;20909;-72
2021/12/05 07:40:30;;;;;;;1.40;0.60;;;3.10;99.90;;;;;;4914933;29;20434;-72
2021/12/05 07:42:57;;;;;;;3.90;0.87;;;3.10;99.90;;;;;;4916416;29;20431;-72
2021/12/05 07:45:32;;;;;;;1.03;0.63;;;3.10;99.90;;;;;;4912876;29;20443;-72
2021/12/05 07:48:03;;;;;;;1.27;0.70;;;3.10;99.90;;;;;;4894338;29;20440;-72
2021/12/05 07:50:40;;;;;;;2.23;0.67;;;3.10;99.90;;;;;;4896788;29;20427;-70
2021/12/05 07:53:10;;;;;;;0.80;0.70;;;3.10;99.90;;;;;;4897843;29;20437;-72
2021/12/05 07:55:42;;;;;;;3.33;1.17;;;3.10;99.90;;;;;;4898307;29;20479;-72
2021/12/05 07:58:27;;;;;;;2.20;0.60;;;3.10;99.90;;;;;;4897209;29;20411;-72
2021/12/05 08:14:25;;;;;;;3.10;2.80;;;3.20;99.90;;;;;;4887973;29;20418;-73
2021/12/05 08:14:46;;;;;;;3.60;2.10;;;3.20;99.90;;;;;;4896254;29;20476;-73
2021/12/05 08:17:17;;;;;;;4.20;1.70;;;3.30;99.90;;;;;;4910364;29;21011;-73
2021/12/05 08:19:43;;;;;;;1.00;0.97;;;3.30;99.90;;;;;;4897836;29;20407;-72
2021/12/05 08:22:09;;;;;;;2.20;1.03;;;3.40;99.90;;;;;;4897492;29;20433;-70
2021/12/05 08:24:38;;;;;;;1.70;0.67;;;3.40;99.90;;;;;;4897410;29;20190;-71
2021/12/05 08:27:05;;;;;;;3.70;0.70;;;3.50;99.90;;;;;;4895651;29;21272;-72
2021/12/05 08:29:44;;;;;;;2.00;1.10;;;3.60;99.90;;;;;;4895888;29;20898;-71
2021/12/05 08:32:31;;;;;;;1.90;1.20;;;3.60;99.90;;;;;;4896644;29;20473;-71
2021/12/05 08:35:09;;;;;;;1.30;0.97;;;3.70;99.90;;;;;;4895865;29;20454;-71
2021/12/05 08:45:49;;;;;;;1.63;1.30;;;4.00;99.90;;;;;;4897032;29;20499;-72
2021/12/05 09:21:34;;;;;;;1.63;1.17;;;8.20;99.90;;;;;;4896703;29;20815;-72
2021/12/05 09:29:20;;;;;;;1.33;1.00;;;7.90;99.90;;;;;;4896547;29;20430;-72
2021/12/05 09:40:15;;;;;;;1.10;0.60;;;6.70;99.90;;;;;;4894052;29;20436;-72
2021/12/05 09:51:16;;;;;;;3.33;0.70;;;7.20;99.90;;;;;;4877927;29;20540;-72
2021/12/05 10:10:03;;;;;;;0.70;0.60;;;9.80;99.90;;;;;;4900272;29;20523;-73
2021/12/05 10:26:40;;;;;;;1.03;0.70;;;10.00;99.90;;;;;;4894535;29;20506;-72
2021/12/05 10:35:41;;;;;;;1.80;0.70;;;10.00;99.90;;;;;;4899531;29;20438;-72
2021/12/05 10:38:13;;;;;;;0.90;0.50;;;9.70;99.90;;;;;;4899522;29;20447;-73
2021/12/05 10:40:47;;;;;;;1.73;0.70;;;9.90;99.90;;;;;;4899535;29;20499;-73
2021/12/05 10:43:18;;;;;;;2.00;0.77;;;9.80;99.90;;;;;;4898648;29;20934;-72
2021/12/05 10:45:47;;;;;;;0.97;0.60;;;10.20;99.90;;;;;;4898116;29;20424;-74
2021/12/05 10:48:32;;;;;;;2.67;0.67;;;10.10;99.90;;;;;;4899223;29;20416;-73
2021/12/05 10:51:01;;;;;;;2.83;1.70;;;10.30;99.90;;;;;;4889998;29;20442;-71
2021/12/05 10:53:31;;;;;;;7.13;3.63;;;10.50;99.90;;;;;;4897485;29;20488;-72
2021/12/05 10:56:07;;;;;;;5.20;2.47;;;10.90;99.90;;;;;;4899330;29;20454;-73
2021/12/05 10:58:39;;;;;;;5.30;0.80;;;10.80;99.90;;;;;;4899198;29;20448;-72
2021/12/05 11:01:27;;;;;;;1.20;0.60;;;10.70;99.90;;;;;;4898970;29;20476;-73
2021/12/05 11:04:04;;;;;;;2.60;1.40;;;10.70;99.90;;;;;;4891215;29;20458;-75
2021/12/05 11:06:31;;;;;;;0.70;0.70;;;10.70;99.90;;;;;;4899393;29;20456;-70
2021/12/05 11:09:06;;;;;;;1.63;0.60;;;10.60;99.90;;;;;;4899059;29;20432;-73
2021/12/05 11:11:32;;;;;;;1.57;0.60;;;10.60;99.90;;;;;;4898943;29;20513;-73
2021/12/05 11:14:01;;;;;;;1.00;0.70;;;10.40;99.90;;;;;;4898570;29;20555;-73
2021/12/05 11:16:41;;;;;;;2.10;0.70;;;10.20;99.90;;;;;;4898543;29;20411;-72
2021/12/05 11:19:15;;;;;;;0.97;0.70;;;9.50;99.90;;;;;;4898561;29;20417;-72
2021/12/05 11:21:46;;;;;;;4.50;2.97;;;9.00;99.90;;;;;;4898743;29;20436;-73
2021/12/05 11:24:22;;;;;;;1.20;0.90;;;8.60;99.90;;;;;;4898471;29;20454;-72
2021/12/05 11:27:17;;;;;;;3.17;2.93;;;8.70;99.90;;;;;;4898579;29;20457;-73
2021/12/05 11:29:59;;;;;;;2.23;1.27;;;8.50;99.90;;;;;;4898767;29;20423;-72
2021/12/05 11:32:49;;;;;;;2.57;1.03;;;8.30;99.90;;;;;;4897652;29;20468;-72
2021/12/05 11:35:46;;;;;;;9.30;4.20;;;8.30;99.90;;;;;;4885453;29;20440;-72
2021/12/05 11:38:16;;;;;;;2.33;1.70;;;8.50;99.90;;;;;;4890300;29;20821;-72
2021/12/05 11:40:53;;;;;;;1.67;1.47;;;8.60;99.90;;;;;;4897831;29;20473;-72
2021/12/05 11:43:21;;;;;;;1.73;1.63;;;8.90;99.90;;;;;;4897845;29;20442;-72
2021/12/05 11:46:20;;;;;;;2.50;1.93;;;9.10;99.90;;;;;;4898550;29;20425;-72
2021/12/05 11:49:08;;;;;;;2.60;0.87;;;8.50;99.90;;;;;;4897582;29;20970;-72
2021/12/05 11:51:47;;;;;;;0.70;0.60;;;8.40;99.90;;;;;;4898549;29;20440;-72
2021/12/05 11:54:22;;;;;;;0.80;0.80;;;8.40;99.90;;;;;;4898122;29;20527;-72
2021/12/05 11:56:58;;;;;;;3.80;0.60;;;8.30;99.90;;;;;;4898460;29;20862;-72
2021/12/05 11:59:26;;;;;;;1.43;0.80;;;8.10;99.90;;;;;;4898010;29;20416;-72
2021/12/05 12:01:57;;;;;;;0.90;0.70;;;8.00;99.90;;;;;;4898400;29;20490;-73
2021/12/05 12:04:36;;;;;;;0.90;0.80;;;8.00;99.90;;;;;;4897965;29;20420;-72
2021/12/05 12:07:12;;;;;;;0.70;0.60;;;7.90;99.90;;;;;;4898059;29;20556;-72
2021/12/05 12:09:39;;;;;;;1.10;0.60;;;7.80;99.90;;;;;;4898758;29;20432;-73
2021/12/05 12:12:05;;;;;;;0.70;0.57;;;7.70;99.90;;;;;;4898056;29;20416;-77
2021/12/05 12:14:31;;;;;;;1.50;0.60;;;7.70;99.90;;;;;;4897897;29;20466;-72
2021/12/05 12:16:58;;;;;;;0.70;0.50;;;7.80;99.90;;;;;;4898185;29;20423;-73
2021/12/05 12:19:24;;;;;;;1.77;0.80;;;7.80;99.90;;;;;;4898106;29;20204;-73
2021/12/05 12:21:56;;;;;;;2.30;0.80;;;7.90;99.90;;;;;;4897975;29;20434;-73
2021/12/05 12:24:22;;;;;;;0.50;0.50;;;7.90;99.90;;;;;;4897803;29;20435;-72
2021/12/05 12:26:47;;;;;;;0.70;0.70;;;7.90;99.90;;;;;;4897880;29;20481;-73
2021/12/05 12:29:13;;;;;;;0.90;0.60;;;7.90;99.90;;;;;;4897541;29;20669;-72
2021/12/05 12:31:44;;;;;;;2.40;0.67;;;8.00;99.90;;;;;;4897537;29;20212;-72
2021/12/05 12:34:18;;;;;;;1.13;0.60;;;8.10;99.90;;;;;;4897353;29;20210;-72
2021/12/05 12:36:50;;;;;;;4.53;0.80;;;8.00;99.90;;;;;;4897527;29;20908;-72
2021/12/05 12:39:15;;;;;;;4.30;0.70;;;8.20;99.90;;;;;;4897538;29;20415;-73
2021/12/05 12:41:43;;;;;;;0.60;0.60;;;8.10;99.90;;;;;;4897396;29;20578;-72
2021/12/05 12:44:09;;;;;;;1.07;0.67;;;8.10;99.90;;;;;;4897092;29;20181;-73
2021/12/05 12:46:40;;;;;;;0.60;0.60;;;8.00;99.90;;;;;;4897493;29;20430;-72
2021/12/05 12:49:14;;;;;;;0.70;0.70;;;8.00;99.90;;;;;;4897492;29;20418;-73
2021/12/05 12:52:00;;;;;;;4.33;0.67;;;7.80;99.90;;;;;;4897248;29;20449;-73
2021/12/05 12:54:48;;;;;;;0.50;0.50;;;7.70;99.90;;;;;;4897029;29;20497;-72
2021/12/05 12:57:28;;;;;;;1.13;0.60;;;7.50;99.90;;;;;;4894986;29;21032;-71
2021/12/05 13:00:04;;;;;;;0.60;0.60;;;7.50;99.90;;;;;;4892218;29;20529;-72
2021/12/05 13:11:13;;;;;;;1.47;0.70;;;8.00;99.90;;;;;;4890301;29;20876;-70
2021/12/05 13:13:42;;;;;;;1.80;0.70;;;7.90;99.90;;;;;;4894853;29;20982;-72
2021/12/05 13:16:15;;;;;;;0.70;0.50;;;7.90;99.90;;;;;;4895394;29;20593;-72
2021/12/05 13:18:43;;;;;;;2.13;1.93;;;7.80;99.90;;;;;;4894190;29;20420;-71
2021/12/05 13:21:12;;;;;;;1.03;0.97;;;7.70;99.90;;;;;;4894574;29;20464;-72
2021/12/05 13:23:48;;;;;;;0.80;0.80;;;7.70;99.90;;;;;;4895409;29;20436;-72
2021/12/05 13:26:23;;;;;;;0.93;0.50;;;7.70;99.90;;;;;;4896394;29;20418;-72
2021/12/05 13:29:25;;;;;;;1.00;0.50;;;7.70;99.90;;;;;;4896333;29;20492;-73
2021/12/05 13:32:10;;;;;;;0.53;0.53;;;7.70;99.90;;;;;;4896258;29;20461;-72
2021/12/05 13:34:44;;;;;;;0.90;0.60;;;7.60;99.90;;;;;;4896114;29;20483;-72
2021/12/05 13:37:09;;;;;;;1.00;0.50;;;7.70;99.90;;;;;;4895088;29;20395;-73
2021/12/05 13:39:43;;;;;;;0.60;0.60;;;7.80;99.90;;;;;;4896275;29;20456;-73
2021/12/05 13:42:14;;;;;;;0.57;0.50;;;7.70;99.90;;;;;;4896233;29;20195;-71
2021/12/05 13:45:05;;;;;;;0.60;0.60;;;7.70;99.90;;;;;;4896544;29;20475;-73
2021/12/05 13:47:42;;;;;;;0.50;0.47;;;7.80;99.90;;;;;;4896224;29;20787;-73
2021/12/05 13:50:25;;;;;;;0.90;0.50;;;7.80;99.90;;;;;;4896223;29;20507;-73
2021/12/05 13:53:02;;;;;;;1.13;0.50;;;7.60;99.90;;;;;;4895922;29;20588;-73
2021/12/05 13:56:03;;;;;;;0.93;0.63;;;7.70;99.90;;;;;;4896421;29;20410;-72
2021/12/05 13:58:32;;;;;;;0.80;0.47;;;7.60;99.90;;;;;;4895483;29;20431;-71
2021/12/05 14:01:33;;;;;;;0.80;0.60;;;7.50;99.90;;;;;;4896227;29;21190;-72
2021/12/05 14:04:18;;;;;;;0.80;0.53;;;7.40;99.90;;;;;;4888829;29;20428;-72
2021/12/05 14:07:06;;;;;;;2.97;0.70;;;7.20;99.90;;;;;;4896450;29;20418;-73
2021/12/05 14:09:46;;;;;;;0.60;0.60;;;7.10;99.90;;;;;;4896172;29;20525;-72
2021/12/05 14:12:24;;;;;;;1.23;0.90;;;7.00;99.90;;;;;;4895879;29;20448;-69
2021/12/05 14:14:49;;;;;;;0.90;0.73;;;6.70;99.90;;;;;;4894280;29;20473;-72
2021/12/05 14:17:30;;;;;;;3.63;0.80;;;6.60;99.90;;;;;;4896337;29;20933;-72
2021/12/05 14:20:25;;;;;;;1.67;0.90;;;6.60;99.90;;;;;;4896095;29;20202;-72
2021/12/05 14:22:51;;;;;;;1.60;1.13;;;6.50;99.90;;;;;;4893805;29;20449;-72
2021/12/05 14:25:25;;;;;;;1.80;1.10;;;6.40;99.90;;;;;;4896212;29;20448;-72
2021/12/05 14:28:04;;;;;;;1.50;1.07;;;6.40;99.90;;;;;;4896298;29;20497;-72
2021/12/05 14:30:32;;;;;;;2.13;1.40;;;6.40;99.90;;;;;;4896235;29;20434;-72
2021/12/05 14:32:59;;;;;;;2.40;0.87;;;6.40;99.90;;;;;;4896086;29;20473;-72
2021/12/05 14:35:32;;;;;;;2.07;1.30;;;6.30;99.90;;;;;;4896422;29;20792;-73
2021/12/05 14:38:02;;;;;;;1.10;0.90;;;6.30;99.90;;;;;;4896614;29;20413;-73
2021/12/05 14:40:32;;;;;;;0.80;0.80;;;6.20;99.90;;;;;;4896137;29;20924;-73
2021/12/05 14:43:04;;;;;;;1.00;0.90;;;6.20;99.90;;;;;;4896079;29;20418;-72
2021/12/05 14:45:36;;;;;;;3.37;1.10;;;6.20;99.90;;;;;;4896235;29;20852;-72
2021/12/05 14:48:05;;;;;;;3.80;1.10;;;6.10;99.90;;;;;;4896123;29;20458;-72
2021/12/05 14:50:34;;;;;;;0.93;0.93;;;5.90;99.90;;;;;;4895909;29;20430;-71
2021/12/05 14:53:05;;;;;;;2.47;0.90;;;5.90;99.90;;;;;;4897513;29;20460;-72
2021/12/05 14:55:34;;;;;;;2.23;1.03;;;5.80;99.90;;;;;;4899776;29;20463;-72
2021/12/05 14:58:03;;;;;;;1.03;0.73;;;5.80;99.90;;;;;;4899179;29;20415;-72
2021/12/05 15:00:33;;;;;;;2.07;1.33;;;5.70;99.90;;;;;;4899480;29;20415;-72
2021/12/05 15:03:13;;;;;;;1.47;1.20;;;5.60;99.90;;;;;;4898931;29;20920;-72
2021/12/05 15:05:42;;;;;;;2.97;1.03;;;5.50;99.90;;;;;;4899318;29;20419;-72
2021/12/05 15:08:12;;;;;;;2.70;1.00;;;5.50;99.90;;;;;;4899075;29;20419;-72
2021/12/05 15:10:41;;;;;;;3.50;1.40;;;5.60;99.90;;;;;;4899443;29;20428;-72
2021/12/05 15:13:08;;;;;;;1.00;0.90;;;5.60;99.90;;;;;;4899416;29;20838;-72
2021/12/05 15:15:35;;;;;;;1.13;1.00;;;5.50;99.90;;;;;;4899176;29;20419;-72
2021/12/05 15:18:02;;;;;;;0.80;0.80;;;5.50;99.90;;;;;;4898813;29;20447;-72
2021/12/05 15:20:31;;;;;;;3.90;1.00;;;5.60;99.90;;;;;;4898824;29;20526;-72
2021/12/05 15:23:06;;;;;;;1.87;1.10;;;5.50;99.90;;;;;;4898619;29;20425;-72
2021/12/05 15:25:33;;;;;;;0.90;0.90;;;5.40;99.90;;;;;;4898956;29;20437;-72
2021/12/05 15:28:00;;;;;;;1.63;0.90;;;5.30;99.90;;;;;;4898849;29;20421;-72
2021/12/05 15:30:32;;;;;;;1.73;1.30;;;5.40;99.90;;;;;;4898807;29;20441;-71
2021/12/05 15:33:10;;;;;;;5.13;1.20;;;5.30;99.90;;;;;;4898328;29;20469;-72
2021/12/05 15:35:37;;;;;;;1.90;1.10;;;5.30;99.90;;;;;;4898762;29;20429;-72
2021/12/05 15:38:04;;;;;;;2.70;1.00;;;5.30;99.90;;;;;;4898509;29;20409;-72
2021/12/05 15:40:32;;;;;;;1.53;1.20;;;5.20;99.90;;;;;;4898532;29;21003;-73
2021/12/05 15:43:05;;;;;;;2.40;1.37;;;5.20;99.90;;;;;;4898194;29;20418;-72
2021/12/05 15:45:32;;;;;;;2.00;1.27;;;5.00;99.90;;;;;;4898400;29;20423;-72
2021/12/05 15:47:58;;;;;;;3.27;1.53;;;5.00;99.90;;;;;;4898381;29;20998;-73
2021/12/05 15:50:27;;;;;;;2.00;1.43;;;4.90;99.90;;;;;;4898151;29;20429;-73
2021/12/05 15:52:55;;;;;;;1.60;1.50;;;4.80;99.90;;;;;;4898140;29;20229;-75
2021/12/05 15:55:23;;;;;;;2.70;2.03;;;4.70;99.90;;;;;;4898397;29;20409;-75
2021/12/05 15:57:59;;;;;;;1.53;1.40;;;4.60;99.90;;;;;;4898136;29;20414;-74
2021/12/05 16:00:30;;;;;;;4.00;1.77;;;4.50;99.90;;;;;;4879740;29;20474;-75
2021/12/05 16:03:02;;;;;;;2.13;1.67;;;4.40;99.90;;;;;;4887157;29;20425;-74
2021/12/05 16:05:29;;;;;;;2.60;2.10;;;4.30;99.90;;;;;;4898144;29;20415;-75
2021/12/05 16:08:05;;;;;;;4.57;2.30;;;4.20;99.90;;;;;;4897866;29;20859;-75
2021/12/05 16:10:33;;;;;;;10.70;4.77;;;4.10;99.90;;;;;;4898126;29;20421;-73
2021/12/05 16:13:06;;;;;;;6.30;4.97;;;4.10;99.90;;;;;;4897572;29;20801;-75
2021/12/05 16:15:32;;;;;;;3.40;1.80;;;4.10;99.90;;;;;;4898148;29;20483;-75
2021/12/05 16:18:00;;;;;;;1.73;1.40;;;4.10;99.90;;;;;;4894989;29;20415;-75
2021/12/05 16:20:48;;;;;;;4.93;3.10;;;4.00;99.90;;;;;;4897863;29;20548;-75
2021/12/05 16:23:24;;;;;;;7.23;4.07;;;4.00;99.90;;;;;;4897377;29;20899;-75
2021/12/05 16:26:11;;;;;;;4.60;3.87;;;4.00;99.90;;;;;;4898174;29;20417;-74
2021/12/05 16:28:53;;;;;;;6.00;3.23;;;4.00;99.90;;;;;;4897538;29;20429;-74
2021/12/05 16:31:30;;;;;;;4.00;2.50;;;4.10;99.90;;;;;;4897675;29;20897;-74
2021/12/05 16:34:04;;;;;;;4.00;2.73;;;4.10;99.90;;;;;;4897557;29;20470;-74
2021/12/05 16:36:33;;;;;;;2.83;2.60;;;4.20;99.90;;;;;;4897267;29;20807;-74
2021/12/05 16:39:06;;;;;;;5.03;2.30;;;4.30;99.90;;;;;;4897384;29;20489;-74
2021/12/05 16:41:33;;;;;;;4.47;2.57;;;4.30;99.90;;;;;;4897560;29;20450;-75
2021/12/05 16:44:08;;;;;;;3.80;2.80;;;4.30;99.90;;;;;;4899080;29;20397;-74
2021/12/05 16:46:42;;;;;;;3.93;3.50;;;4.30;99.90;;;;;;4897418;29;20918;-74
2021/12/05 16:49:35;;;;;;;10.27;5.73;;;4.20;99.90;;;;;;4897398;29;20411;-74
2021/12/05 16:52:05;;;;;;;9.53;5.33;;;4.20;99.90;;;;;;4894240;29;20467;-73
2021/12/05 16:54:46;;;;;;;6.60;4.20;;;4.30;99.90;;;;;;4897151;29;20471;-73
2021/12/05 16:57:16;;;;;;;3.07;2.70;;;4.30;99.90;;;;;;4897739;29;20412;-73
2021/12/05 16:59:47;;;;;;;2.20;2.10;;;4.30;99.90;;;;;;4897093;29;20877;-74
2021/12/05 17:02:13;;;;;;;2.70;2.50;;;4.30;99.90;;;;;;4897061;29;20469;-74
2021/12/05 17:05:03;;;;;;;3.43;2.70;;;4.30;99.90;;;;;;4897922;29;20402;-74
2021/12/05 17:07:42;;;;;;;4.57;3.13;;;4.30;99.90;;;;;;4895244;29;20191;-74
2021/12/05 17:10:29;;;;;;;5.87;2.57;;;4.30;99.90;;;;;;4896942;29;20512;-75
2021/12/05 17:13:07;;;;;;;2.87;2.67;;;4.20;99.90;;;;;;4896766;29;20508;-74
2021/12/05 17:15:34;;;;;;;2.17;1.97;;;4.10;99.90;;;;;;4896460;29;20414;-74
2021/12/05 17:18:04;;;;;;;3.60;2.80;;;4.10;99.90;;;;;;4896117;29;20472;-75
2021/12/05 17:20:32;;;;;;;4.00;2.63;;;4.10;99.90;;;;;;4897068;29;20422;-74
2021/12/05 17:23:05;;;;;;;2.47;2.30;;;4.00;99.90;;;;;;4896601;29;20420;-74
2021/12/05 17:25:36;;;;;;;2.27;2.10;;;4.00;99.90;;;;;;4896860;29;20478;-73
2021/12/05 17:28:05;;;;;;;2.83;2.30;;;4.00;99.90;;;;;;4896767;29;20432;-74
2021/12/05 17:30:30;;;;;;;2.23;2.13;;;4.00;99.90;;;;;;4896654;29;20428;-74
2021/12/05 17:32:57;;;;;;;7.77;2.37;;;4.00;99.90;;;;;;4896125;29;20489;-74
2021/12/05 17:35:28;;;;;;;5.40;2.00;;;4.00;99.90;;;;;;4896769;29;20613;-74
2021/12/05 17:37:55;;;;;;;3.30;2.03;;;3.90;99.90;;;;;;4896214;29;20452;-74
2021/12/05 17:40:21;;;;;;;2.10;2.00;;;3.90;99.90;;;;;;4896384;29;20417;-74
2021/12/05 17:42:46;;;;;;;4.93;2.57;;;3.80;99.90;;;;;;4896087;29;20541;-73
2021/12/05 17:45:17;;;;;;;5.50;3.23;;;3.80;99.90;;;;;;4896580;29;20658;-73
2021/12/05 17:47:43;;;;;;;5.30;3.03;;;3.80;99.90;;;;;;4896161;29;20188;-74
2021/12/05 17:50:14;;;;;;;3.43;2.83;;;3.80;99.90;;;;;;4894941;29;20427;-74
2021/12/05 17:52:40;;;;;;;5.23;2.77;;;3.80;99.90;;;;;;4896156;29;20436;-73
2021/12/05 17:55:17;;;;;;;3.37;2.50;;;3.70;99.90;;;;;;4896034;29;20952;-73
2021/12/05 17:57:48;;;;;;;3.43;3.20;;;3.70;99.90;;;;;;4896415;29;20422;-73
2021/12/05 18:00:44;;;;;;;3.27;2.30;;;3.70;99.90;;;;;;4896499;29;20947;-74
2021/12/05 18:03:11;;;;;;;21.63;18.07;;;3.60;99.90;;;;;;4895774;29;20435;-74
2021/12/05 18:05:44;;;;;;;13.67;11.57;;;3.50;99.90;;;;;;4896170;29;20435;-74
2021/12/05 18:08:17;;;;;;;5.50;5.00;;;3.40;99.90;;;;;;4896073;29;20511;-74
2021/12/05 18:10:48;;;;;;;2.90;2.57;;;3.30;99.90;;;;;;4896358;29;20908;-74
2021/12/05 18:13:15;;;;;;;3.90;3.20;;;3.30;99.90;;;;;;4895779;29;20525;-74
2021/12/05 18:15:47;;;;;;;7.70;6.53;;;3.20;99.90;;;;;;4893655;29;20473;-74
2021/12/05 18:18:16;;;;;;;9.03;5.30;;;3.10;99.90;;;;;;4895072;29;20467;-74
2021/12/05 18:20:42;;;;;;;8.77;5.17;;;3.00;99.90;;;;;;4895509;29;20449;-74
2021/12/05 18:23:09;;;;;;;4.70;4.30;;;3.00;99.90;;;;;;4894938;29;20501;-74
2021/12/05 18:25:37;;;;;;;4.43;4.00;;;3.00;99.90;;;;;;4892510;29;20426;-73
2021/12/05 18:28:04;;;;;;;3.40;3.10;;;3.00;99.90;;;;;;4890512;29;20464;-73
2021/12/05 18:30:29;;;;;;;7.93;3.97;;;3.00;99.90;;;;;;4899242;29;20466;-74
2021/12/05 18:32:58;;;;;;;7.07;4.57;;;3.00;99.90;;;;;;4898665;29;20474;-73
2021/12/05 18:35:29;;;;;;;6.03;3.80;;;3.00;99.90;;;;;;4899028;29;20233;-73
2021/12/05 18:37:56;;;;;;;5.07;3.13;;;3.00;99.90;;;;;;4898738;29;20495;-74
2021/12/05 18:40:23;;;;;;;3.93;3.53;;;3.00;99.90;;;;;;4898544;29;20501;-74
2021/12/05 18:42:50;;;;;;;5.00;3.10;;;3.00;99.90;;;;;;4897887;29;20487;-73
2021/12/05 18:45:18;;;;;;;4.80;3.77;;;3.00;99.90;;;;;;4898368;29;20415;-74
2021/12/05 18:47:44;;;;;;;3.20;2.63;;;2.90;99.90;;;;;;4898929;29;20394;-74
2021/12/05 18:50:10;;;;;;;4.10;2.90;;;2.90;99.90;;;;;;4897175;29;20842;-74
2021/12/05 18:52:36;;;;;;;5.63;3.23;;;2.90;99.90;;;;;;4899047;29;20418;-74
2021/12/05 18:55:09;;;;;;;5.20;3.47;;;2.90;99.90;;;;;;4899048;29;20251;-74
2021/12/05 18:57:35;;;;;;;10.97;3.00;;;2.90;99.90;;;;;;4898980;29;20390;-74
2021/12/05 19:00:09;;;;;;;4.27;3.10;;;2.90;99.90;;;;;;4899133;29;20401;-74
2021/12/05 19:05:32;;;;;;;8.60;4.70;;;3.00;99.90;;;;;;4899138;29;20434;-74
2021/12/05 19:13:22;;;;;;;14.37;7.23;;;3.10;99.90;;;;;;4898766;29;20527;-73
2021/12/05 19:15:47;;;;;;;6.80;5.87;;;3.20;99.90;;;;;;4885283;29;20582;-74
2021/12/05 19:18:15;;;;;;;9.00;7.63;;;3.30;99.90;;;;;;4898070;29;20925;-73
2021/12/05 19:20:41;;;;;;;8.40;6.57;;;3.20;99.90;;;;;;4897424;29;20215;-73
2021/12/05 19:23:07;;;;;;;8.80;6.30;;;3.30;99.90;;;;;;4898312;29;20927;-73
2021/12/05 19:25:36;;;;;;;7.07;6.37;;;3.30;99.90;;;;;;4894756;29;20873;-73
2021/12/05 19:28:03;;;;;;;5.77;5.13;;;3.20;99.90;;;;;;4896307;29;20508;-74
2021/12/05 19:30:32;;;;;;;4.73;4.17;;;3.30;99.90;;;;;;4898305;29;20486;-74
2021/12/05 19:33:01;;;;;;;6.10;5.47;;;3.30;99.90;;;;;;4897754;29;20482;-75
2021/12/05 19:35:27;;;;;;;8.20;5.30;;;3.20;99.90;;;;;;4897683;29;21122;-73
2021/12/05 19:37:53;;;;;;;10.60;6.37;;;3.20;99.90;;;;;;4897233;29;20530;-73
2021/12/05 19:40:23;;;;;;;7.40;5.67;;;3.10;99.90;;;;;;4898009;29;20563;-74
2021/12/05 19:42:51;;;;;;;11.20;7.90;;;3.10;99.90;;;;;;4897808;29;20219;-74
2021/12/05 19:45:18;;;;;;;10.63;8.20;;;3.10;99.90;;;;;;4897998;29;20459;-73
2021/12/05 19:47:45;;;;;;;13.87;7.90;;;3.20;99.90;;;;;;4896460;29;20474;-73
2021/12/05 19:50:13;;;;;;;15.03;8.10;;;3.10;99.90;;;;;;4897832;29;20455;-72
2021/12/05 19:52:39;;;;;;;11.03;8.90;;;3.10;99.90;;;;;;4897810;29;20438;-74
2021/12/05 19:55:07;;;;;;;10.37;6.10;;;3.10;99.90;;;;;;4896568;29;20917;-73
2021/12/05 19:57:35;;;;;;;6.90;5.50;;;3.20;99.90;;;;;;4892610;29;20807;-74
2021/12/05 20:00:02;;;;;;;10.53;5.57;;;3.20;99.90;;;;;;4891867;29;20494;-73
2021/12/05 20:02:27;;;;;;;11.50;6.40;;;3.20;99.90;;;;;;4897500;29;20452;-73
2021/12/05 20:04:53;;;;;;;8.00;4.90;;;3.20;99.90;;;;;;4897585;29;20466;-73
2021/12/05 20:07:21;;;;;;;8.20;6.23;;;3.20;99.90;;;;;;4896874;29;20246;-74
2021/12/05 20:09:47;;;;;;;7.63;6.00;;;3.20;99.90;;;;;;4895745;29;20855;-74
2021/12/05 20:12:13;;;;;;;6.50;5.23;;;3.20;99.90;;;;;;4897153;29;20481;-73
2021/12/05 20:14:39;;;;;;;8.03;6.20;;;3.20;99.90;;;;;;4897348;29;20306;-74
2021/12/05 20:17:06;;;;;;;6.13;5.50;;;3.10;99.90;;;;;;4895920;29;20214;-73
2021/12/05 20:19:32;;;;;;;9.03;5.60;;;3.10;99.90;;;;;;4889291;29;20476;-73
2021/12/05 20:22:01;;;;;;;8.13;5.20;;;3.10;99.90;;;;;;4894468;29;20859;-73
2021/12/05 20:24:29;;;;;;;7.53;5.07;;;3.10;99.90;;;;;;4897467;29;20507;-74
2021/12/05 20:26:55;;;;;;;9.43;5.40;;;3.10;99.90;;;;;;4886124;29;20442;-73
2021/12/05 20:29:21;;;;;;;6.93;5.87;;;3.10;99.90;;;;;;4896705;29;20497;-74
2021/12/05 20:31:47;;;;;;;8.90;5.13;;;3.10;99.90;;;;;;4897058;29;20463;-74
2021/12/05 20:34:14;;;;;;;14.83;8.33;;;3.10;99.90;;;;;;4896712;29;21058;-73
2021/12/05 20:36:40;;;;;;;15.87;8.40;;;3.10;99.90;;;;;;4897321;29;20460;-73
2021/12/05 20:39:07;;;;;;;12.97;8.10;;;3.10;99.90;;;;;;4896744;29;20449;-73
2021/12/05 20:41:34;;;;;;;14.33;8.03;;;3.10;99.90;;;;;;4885979;29;20530;-73
2021/12/05 20:43:59;;;;;;;10.53;6.23;;;3.10;99.90;;;;;;4895822;29;21055;-74
2021/12/05 20:46:25;;;;;;;9.50;7.00;;;3.00;99.90;;;;;;4895972;29;20529;-73
2021/12/05 20:48:51;;;;;;;11.20;6.27;;;3.00;99.90;;;;;;4896647;29;20452;-74
2021/12/05 20:51:16;;;;;;;11.10;7.20;;;3.00;99.90;;;;;;4893824;29;20220;-73
2021/12/05 20:53:43;;;;;;;10.27;6.77;;;3.10;99.90;;;;;;4896632;29;20238;-74
2021/12/05 20:56:09;;;;;;;10.40;5.90;;;3.00;99.90;;;;;;4896636;29;20248;-75
2021/12/05 20:58:34;;;;;;;14.77;5.87;;;3.00;99.90;;;;;;4896615;29;20933;-73
2021/12/05 21:01:02;;;;;;;10.23;6.30;;;3.00;99.90;;;;;;4896875;29;20486;-74
2021/12/05 21:03:29;;;;;;;8.43;6.10;;;3.00;99.90;;;;;;4895852;29;20265;-73
2021/12/05 21:05:57;;;;;;;15.93;7.10;;;3.00;99.90;;;;;;4897229;29;20468;-74
2021/12/05 21:08:25;;;;;;;10.23;6.23;;;3.10;99.90;;;;;;4896263;29;21446;-73
2021/12/05 21:10:56;;;;;;;6.50;5.90;;;3.00;99.90;;;;;;4896392;29;20897;-74
2021/12/05 21:13:24;;;;;;;5.83;4.20;;;3.10;99.90;;;;;;4893024;29;20503;-74
2021/12/05 21:15:51;;;;;;;11.67;5.60;;;3.10;99.90;;;;;;4894953;29;20449;-74
2021/12/05 21:18:18;;;;;;;6.30;4.90;;;3.10;99.90;;;;;;4895744;29;20455;-74
2021/12/05 21:20:45;;;;;;;15.97;8.07;;;3.10;99.90;;;;;;4895414;29;20477;-76
2021/12/05 21:23:12;;;;;;;8.30;6.50;;;3.10;99.90;;;;;;4896003;29;20856;-74
2021/12/05 21:25:39;;;;;;;8.03;6.30;;;3.10;99.90;;;;;;4885120;29;20956;-74
2021/12/05 21:28:05;;;;;;;8.30;5.50;;;3.10;99.90;;;;;;4895841;29;20474;-73
2021/12/05 21:30:31;;;;;;;7.67;5.43;;;3.00;99.90;;;;;;4895960;29;20773;-75
2021/12/05 21:32:57;;;;;;;7.40;5.90;;;3.00;99.90;;;;;;4895483;29;20453;-74
2021/12/05 21:35:25;;;;;;;6.47;5.87;;;3.00;99.90;;;;;;4887649;29;20231;-74
2021/12/05 21:37:51;;;;;;;17.87;6.10;;;3.00;99.90;;;;;;4893102;29;20467;-74
2021/12/05 21:40:21;;;;;;;7.77;5.13;;;3.00;99.90;;;;;;4895715;29;20525;-74